createdAt,value
2018-09-28T00:01:16.205Z,10.95
2018-09-28T00:03:44.760Z,10.96
2018-09-28T00:06:13.257Z,10.81
2018-09-28T00:08:41.842Z,10.96
2018-09-28T00:11:10.469Z,10.95
2018-09-28T00:13:38.990Z,11.03
2018-09-28T00:16:07.545Z,10.96
2018-09-28T00:18:36.085Z,10.97
2018-09-28T00:21:05.633Z,11.00
2018-09-28T00:23:34.134Z,10.99
2018-09-28T00:26:03.831Z,11.02
2018-09-28T00:28:32.316Z,11.33
2018-09-28T00:31:00.901Z,11.58
2018-09-28T00:33:29.533Z,11.76
2018-09-28T00:35:58.269Z,11.88
2018-09-28T00:38:26.705Z,11.93
2018-09-28T00:40:55.949Z,11.92
2018-09-28T00:43:24.597Z,11.80
2018-09-28T00:45:53.157Z,11.89
2018-09-28T00:48:21.643Z,12.04
2018-09-28T00:50:50.607Z,12.10
2018-09-28T00:53:19.107Z,12.22
2018-09-28T00:55:47.628Z,12.32
2018-09-28T00:58:16.169Z,12.33
2018-09-28T01:00:44.681Z,12.51
2018-09-28T01:03:13.298Z,12.67
2018-09-28T01:05:41.812Z,12.80
2018-09-28T01:08:10.313Z,12.75
2018-09-28T01:10:38.849Z,12.73
2018-09-28T01:13:09.510Z,12.93
2018-09-28T01:15:38.049Z,12.87
2018-09-28T01:18:06.751Z,12.94
2018-09-28T01:20:35.641Z,13.07
2018-09-28T01:23:05.225Z,13.06
2018-09-28T01:25:33.881Z,12.88
2018-09-28T01:28:03.741Z,12.73
2018-09-28T01:30:32.332Z,12.91
2018-09-28T01:33:00.917Z,13.01
2018-09-28T01:35:29.433Z,12.88
2018-09-28T01:37:58.014Z,12.98
2018-09-28T01:40:26.614Z,13.04
2018-09-28T01:42:55.164Z,13.01
2018-09-28T01:45:23.859Z,12.94
2018-09-28T01:47:52.394Z,13.10
2018-09-28T01:50:21.907Z,13.27
2018-09-28T01:52:50.445Z,13.15
2018-09-28T01:55:19.177Z,12.89
2018-09-28T01:57:47.768Z,12.96
2018-09-28T02:00:16.289Z,13.04
2018-09-28T02:02:45.030Z,12.98
2018-09-28T02:05:13.626Z,12.97
2018-09-28T02:07:42.163Z,13.16
2018-09-28T02:10:10.962Z,13.21
2018-09-28T02:12:39.577Z,13.27
2018-09-28T02:15:08.088Z,13.30
2018-09-28T02:17:36.660Z,13.31
2018-09-28T02:20:05.228Z,13.37
2018-09-28T02:22:35.598Z,13.22
2018-09-28T02:25:05.675Z,13.12
2018-09-28T02:27:34.216Z,13.15
2018-09-28T02:30:04.664Z,13.23
2018-09-28T02:32:33.222Z,13.22
2018-09-28T02:35:03.102Z,13.17
2018-09-28T02:37:31.665Z,13.28
2018-09-28T02:40:00.219Z,13.27
2018-09-28T02:42:28.841Z,13.16
2018-09-28T02:44:57.391Z,13.18
2018-09-28T02:47:25.920Z,13.26
2018-09-28T02:49:54.476Z,13.31
2018-09-28T02:52:23.005Z,13.37
2018-09-28T02:54:51.500Z,13.42
2018-09-28T02:57:20.035Z,13.45
2018-09-28T02:59:48.555Z,13.48
2018-09-28T03:02:17.070Z,13.48
2018-09-28T03:04:45.613Z,13.52
2018-09-28T03:07:14.134Z,13.53
2018-09-28T03:09:42.670Z,13.53
2018-09-28T03:12:11.212Z,13.52
2018-09-28T03:14:39.973Z,13.51
2018-09-28T03:17:08.569Z,13.51
2018-09-28T03:19:37.071Z,13.54
2018-09-28T03:22:05.662Z,13.55
2018-09-28T03:24:36.439Z,13.53
2018-09-28T03:27:08.192Z,13.48
2018-09-28T03:29:36.731Z,13.45
2018-09-28T03:32:05.247Z,13.44
2018-09-28T03:34:33.850Z,13.42
2018-09-28T03:37:03.877Z,13.45
2018-09-28T03:39:32.382Z,13.39
2018-09-28T03:42:03.095Z,13.33
2018-09-28T03:44:31.580Z,13.33
2018-09-28T03:47:00.202Z,13.35
2018-09-28T03:49:28.812Z,13.35
2018-09-28T03:51:57.662Z,13.37
2018-09-28T03:54:26.188Z,13.39
2018-09-28T03:56:54.748Z,13.41
2018-09-28T03:59:23.395Z,13.38
2018-09-28T04:01:52.013Z,13.41
2018-09-28T04:04:20.568Z,13.41
2018-09-28T04:06:49.291Z,13.37
2018-09-28T04:09:17.765Z,13.35
2018-09-28T04:11:46.317Z,13.34
2018-09-28T04:14:16.512Z,13.29
2018-09-28T04:16:45.044Z,13.25
2018-09-28T04:19:13.580Z,13.21
2018-09-28T04:21:46.290Z,13.21
2018-09-28T04:24:14.832Z,13.22
2018-09-28T04:26:43.561Z,13.16
2018-09-28T04:29:12.080Z,13.22
2018-09-28T04:31:40.599Z,13.21
2018-09-28T04:34:09.383Z,13.21
2018-09-28T04:36:37.938Z,13.23
2018-09-28T04:39:08.411Z,13.24
2018-09-28T04:41:36.964Z,13.24
2018-09-28T04:44:08.687Z,13.20
2018-09-28T04:46:38.169Z,13.19
2018-09-28T04:49:06.935Z,13.19
2018-09-28T04:51:35.779Z,13.20
2018-09-28T04:54:05.344Z,13.17
2018-09-28T04:56:33.843Z,13.17
2018-09-28T04:59:03.803Z,13.14
2018-09-28T05:01:32.291Z,13.16
2018-09-28T05:04:03.115Z,13.16
2018-09-28T05:06:31.642Z,13.13
2018-09-28T05:09:00.356Z,13.15
2018-09-28T05:11:28.863Z,13.12
2018-09-28T05:13:57.361Z,13.10
2018-09-28T05:16:25.899Z,13.09
2018-09-28T05:18:54.383Z,13.10
2018-09-28T05:21:22.946Z,13.14
2018-09-28T05:23:51.477Z,13.10
2018-09-28T05:26:20.028Z,13.06
2018-09-28T05:28:48.524Z,13.07
2018-09-28T05:31:18.245Z,13.09
2018-09-28T05:33:46.813Z,13.08
2018-09-28T05:36:15.369Z,13.10
2018-09-28T05:38:43.864Z,13.14
2018-09-28T05:41:12.505Z,13.08
2018-09-28T05:43:41.051Z,13.05
2018-09-28T05:46:09.623Z,13.01
2018-09-28T05:48:38.800Z,13.05
2018-09-28T05:51:07.761Z,12.96
2018-09-28T05:53:36.588Z,12.95
2018-09-28T05:56:05.552Z,13.00
2018-09-28T05:58:39.304Z,12.99
2018-09-28T06:01:13.165Z,12.97
2018-09-28T06:03:46.844Z,13.14
2018-09-28T06:06:15.374Z,13.13
2018-09-28T06:08:43.884Z,13.09
2018-09-28T06:11:12.392Z,13.14
2018-09-28T06:13:40.904Z,13.09
2018-09-28T06:16:09.428Z,13.07
2018-09-28T06:18:38.080Z,13.04
2018-09-28T06:21:07.004Z,12.99
2018-09-28T06:23:35.478Z,12.96
2018-09-28T06:26:06.739Z,12.96
2018-09-28T06:28:35.281Z,12.94
2018-09-28T06:31:05.765Z,12.95
2018-09-28T06:33:34.285Z,12.97
2018-09-28T06:36:04.487Z,12.99
2018-09-28T06:38:33.046Z,13.03
2018-09-28T06:41:02.748Z,13.05
2018-09-28T06:43:31.252Z,12.98
2018-09-28T06:45:59.769Z,12.97
2018-09-28T06:48:28.311Z,13.00
2018-09-28T06:50:56.854Z,12.99
2018-09-28T06:53:25.356Z,13.07
2018-09-28T06:55:53.914Z,13.06
2018-09-28T06:58:22.538Z,13.09
2018-09-28T07:00:51.196Z,13.05
2018-09-28T07:03:19.708Z,13.12
2018-09-28T07:05:48.273Z,13.12
2018-09-28T07:08:16.750Z,13.18
2018-09-28T07:10:45.791Z,13.11
2018-09-28T07:13:14.672Z,13.17
2018-09-28T07:15:43.271Z,13.19
2018-09-28T07:18:11.837Z,13.27
2018-09-28T07:20:40.333Z,13.30
2018-09-28T07:23:08.905Z,13.39
2018-09-28T07:25:42.900Z,13.48
2018-09-28T07:28:11.542Z,13.38
2018-09-28T07:30:40.126Z,13.42
2018-09-28T07:33:08.894Z,13.53
2018-09-28T07:35:37.427Z,13.58
2018-09-28T07:38:05.973Z,13.56
2018-09-28T07:40:34.849Z,13.70
2018-09-28T07:43:04.424Z,13.69
2018-09-28T07:45:32.948Z,13.69
2018-09-28T07:48:02.871Z,13.78
2018-09-28T07:50:31.780Z,13.89
2018-09-28T07:53:00.308Z,13.85
2018-09-28T07:55:28.873Z,13.77
2018-09-28T07:57:57.408Z,13.74
2018-09-28T08:00:25.947Z,13.89
2018-09-28T08:02:54.479Z,14.00
2018-09-28T08:05:22.981Z,13.94
2018-09-28T08:07:51.612Z,14.16
2018-09-28T08:10:20.150Z,14.08
2018-09-28T08:12:48.747Z,14.32
2018-09-28T08:15:17.254Z,14.15
2018-09-28T08:17:45.904Z,14.20
2018-09-28T08:20:14.428Z,14.18
2018-09-28T08:22:42.936Z,14.39
2018-09-28T08:25:11.476Z,14.27
2018-09-28T08:27:39.987Z,14.37
2018-09-28T08:30:08.563Z,14.21
2018-09-28T08:32:37.068Z,14.50
2018-09-28T08:35:06.055Z,14.55
2018-09-28T08:37:34.564Z,14.57
2018-09-28T08:40:05.253Z,14.97
2018-09-28T08:42:33.761Z,15.40
2018-09-28T08:45:04.209Z,15.54
2018-09-28T08:47:33.024Z,15.57
2018-09-28T08:50:04.601Z,15.58
2018-09-28T08:52:33.174Z,15.72
2018-09-28T08:55:03.088Z,15.69
2018-09-28T08:57:31.634Z,15.73
2018-09-28T09:00:00.165Z,16.08
2018-09-28T09:02:28.718Z,15.84
2018-09-28T09:04:57.406Z,15.76
2018-09-28T09:07:26.365Z,15.86
2018-09-28T09:09:54.881Z,15.96
2018-09-28T09:12:24.403Z,15.88
2018-09-28T09:14:53.016Z,15.35
2018-09-28T09:17:21.551Z,15.20
2018-09-28T09:19:50.112Z,15.35
2018-09-28T09:22:18.649Z,15.40
2018-09-28T09:24:47.525Z,15.15
2018-09-28T09:27:16.040Z,15.02
2018-09-28T09:29:44.578Z,15.08
2018-09-28T09:32:13.101Z,15.10
2018-09-28T09:34:41.678Z,15.56
2018-09-28T09:37:10.231Z,16.01
2018-09-28T09:39:38.771Z,16.47
2018-09-28T09:42:07.307Z,16.65
2018-09-28T09:44:36.077Z,16.69
2018-09-28T09:47:05.686Z,16.00
2018-09-28T09:49:34.251Z,15.97
2018-09-28T09:52:06.154Z,16.02
2018-09-28T09:54:34.685Z,15.87
2018-09-28T09:57:07.233Z,16.53
2018-09-28T09:59:35.768Z,16.99
2018-09-28T10:02:10.488Z,16.24
2018-09-28T10:04:39.179Z,15.88
2018-09-28T10:07:07.879Z,15.63
2018-09-28T10:09:36.407Z,15.86
2018-09-28T10:12:05.028Z,15.48
2018-09-28T10:14:33.558Z,15.16
2018-09-28T10:17:03.826Z,15.00
2018-09-28T10:19:32.416Z,15.23
2018-09-28T10:22:03.148Z,15.47
2018-09-28T10:24:31.638Z,15.81
2018-09-28T10:27:00.216Z,15.75
2018-09-28T10:29:28.946Z,15.79
2018-09-28T10:32:04.505Z,16.09
2018-09-28T10:34:33.092Z,15.87
2018-09-28T10:37:03.195Z,15.73
2018-09-28T10:39:32.843Z,15.75
2018-09-28T10:42:04.078Z,15.36
2018-09-28T10:44:32.685Z,15.33
2018-09-28T10:47:03.211Z,15.22
2018-09-28T10:49:31.729Z,15.35
2018-09-28T10:52:00.448Z,15.77
2018-09-28T10:54:28.897Z,15.79
2018-09-28T10:56:57.436Z,15.71
2018-09-28T10:59:25.921Z,15.98
2018-09-28T11:01:54.456Z,15.76
2018-09-28T11:04:24.636Z,15.95
2018-09-28T11:06:53.172Z,16.42
2018-09-28T11:09:21.800Z,17.05
2018-09-28T11:11:50.424Z,16.96
2018-09-28T11:14:19.274Z,17.03
2018-09-28T11:16:48.139Z,17.55
2018-09-28T11:19:16.633Z,17.55
2018-09-28T11:21:45.209Z,17.09
2018-09-28T11:24:13.680Z,16.81
2018-09-28T11:26:42.241Z,16.58
2018-09-28T11:29:11.345Z,15.88
2018-09-28T11:31:39.818Z,15.65
2018-09-28T11:34:08.643Z,15.36
2018-09-28T11:36:37.133Z,15.27
2018-09-28T11:39:07.087Z,15.13
2018-09-28T11:41:35.613Z,14.98
2018-09-28T11:44:05.148Z,14.99
2018-09-28T11:46:33.675Z,15.22
2018-09-28T11:49:03.841Z,15.61
2018-09-28T11:51:32.627Z,16.30
2018-09-28T11:54:04.173Z,16.49
2018-09-28T11:56:32.680Z,16.33
2018-09-28T11:59:02.681Z,16.48
2018-09-28T12:01:31.232Z,16.78
2018-09-28T12:03:59.809Z,16.87
2018-09-28T12:06:28.408Z,16.25
2018-09-28T12:08:56.976Z,15.84
2018-09-28T12:11:25.521Z,15.85
2018-09-28T12:13:54.111Z,15.87
2018-09-28T12:16:22.628Z,16.16
2018-09-28T12:18:51.225Z,15.96
2018-09-28T12:21:19.678Z,15.84
2018-09-28T12:23:48.318Z,15.65
2018-09-28T12:26:16.885Z,15.50
2018-09-28T12:28:45.434Z,16.01
2018-09-28T12:31:13.973Z,16.42
2018-09-28T12:33:42.544Z,16.82
2018-09-28T12:36:11.185Z,16.64
2018-09-28T12:38:39.762Z,16.59
2018-09-28T12:41:08.331Z,15.54
2018-09-28T12:43:36.867Z,15.88
2018-09-28T12:46:06.342Z,16.42
2018-09-28T12:48:34.874Z,16.00
2018-09-28T12:51:05.075Z,16.87
2018-09-28T12:53:33.636Z,17.19
2018-09-28T12:56:03.701Z,17.71
2018-09-28T12:58:32.209Z,18.80
2018-09-28T13:01:00.792Z,18.16
2018-09-28T13:03:30.383Z,19.14
2018-09-28T13:05:58.926Z,18.91
2018-09-28T13:08:27.558Z,18.17
2018-09-28T13:10:56.022Z,16.61
2018-09-28T13:13:24.578Z,16.58
2018-09-28T13:15:53.217Z,15.92
2018-09-28T13:18:21.744Z,15.60
2018-09-28T13:20:50.469Z,15.58
2018-09-28T13:23:18.992Z,15.49
2018-09-28T13:25:47.534Z,15.38
2018-09-28T13:28:16.046Z,15.28
2018-09-28T13:30:45.329Z,16.59
2018-09-28T13:33:14.109Z,16.53
2018-09-28T13:35:42.710Z,16.79
2018-09-28T13:38:11.359Z,17.12
2018-09-28T13:40:39.829Z,17.43
2018-09-28T13:43:08.355Z,17.81
2018-09-28T13:45:36.914Z,17.43
2018-09-28T13:48:05.442Z,16.92
2018-09-28T13:50:34.033Z,16.90
2018-09-28T13:53:04.401Z,16.66
2018-09-28T13:55:32.956Z,17.16
2018-09-28T13:58:03.039Z,17.10
2018-09-28T14:00:31.569Z,16.31
2018-09-28T14:03:00.104Z,15.39
2018-09-28T14:05:28.717Z,15.14
2018-09-28T14:07:57.231Z,14.99
2018-09-28T14:10:25.911Z,14.83
2018-09-28T14:12:54.288Z,14.97
2018-09-28T14:15:22.868Z,15.58
2018-09-28T14:17:51.569Z,16.10
2018-09-28T14:20:20.500Z,15.59
2018-09-28T14:22:49.168Z,15.93
2018-09-28T14:25:17.518Z,15.67
2018-09-28T14:27:46.106Z,15.59
2018-09-28T14:30:14.689Z,15.64
2018-09-28T14:32:43.313Z,15.51
2018-09-28T14:35:11.731Z,15.68
2018-09-28T14:37:40.636Z,16.19
2018-09-28T14:40:09.657Z,15.80
2018-09-28T14:42:38.333Z,15.94
2018-09-28T14:45:06.984Z,16.64
2018-09-28T14:47:35.797Z,17.31
2018-09-28T14:50:05.322Z,16.66
2018-09-28T14:52:33.922Z,16.10
2018-09-28T14:55:03.869Z,15.88
2018-09-28T14:57:33.616Z,16.46
2018-09-28T15:00:07.397Z,16.69
2018-09-28T15:02:35.952Z,16.90
2018-09-28T15:05:09.619Z,17.14
2018-09-28T15:07:38.163Z,16.16
2018-09-28T15:10:06.713Z,15.83
2018-09-28T15:12:35.345Z,15.74
2018-09-28T15:15:05.258Z,16.15
2018-09-28T15:17:33.795Z,15.95
2018-09-28T15:20:05.315Z,16.06
2018-09-28T15:22:33.842Z,16.08
2018-09-28T15:25:05.166Z,15.47
2018-09-28T15:27:33.675Z,15.44
2018-09-28T15:30:03.794Z,15.34
2018-09-28T15:32:32.489Z,15.23
2018-09-28T15:35:04.299Z,15.34
2018-09-28T15:37:33.299Z,15.06
2018-09-28T15:40:03.534Z,15.03
2018-09-28T15:42:32.050Z,14.96
2018-09-28T15:45:00.545Z,15.15
2018-09-28T15:47:29.108Z,15.07
2018-09-28T15:49:57.664Z,15.03
2018-09-28T15:52:26.231Z,14.73
2018-09-28T15:54:54.881Z,14.28
2018-09-28T15:57:23.386Z,14.19
2018-09-28T15:59:52.458Z,14.08
2018-09-28T16:02:21.346Z,13.96
2018-09-28T16:04:49.843Z,13.96
2018-09-28T16:07:18.709Z,13.85
2018-09-28T16:09:47.245Z,13.76
2018-09-28T16:12:15.829Z,13.77
2018-09-28T16:14:44.340Z,13.69
2018-09-28T16:17:12.882Z,13.88
2018-09-28T16:19:41.542Z,14.15
2018-09-28T16:22:10.053Z,14.36
2018-09-28T16:24:38.828Z,14.62
2018-09-28T16:27:07.683Z,14.50
2018-09-28T16:29:36.196Z,14.53
2018-09-28T16:32:05.708Z,14.35
2018-09-28T16:34:34.228Z,14.31
2018-09-28T16:37:04.799Z,13.84
2018-09-28T16:39:34.618Z,13.80
2018-09-28T16:42:05.055Z,13.69
2018-09-28T16:44:33.664Z,13.52
2018-09-28T16:47:03.685Z,13.41
2018-09-28T16:49:32.330Z,13.24
2018-09-28T16:52:00.825Z,13.35
2018-09-28T16:54:29.337Z,13.15
2018-09-28T16:56:58.356Z,13.04
2018-09-28T16:59:26.922Z,13.06
2018-09-28T17:01:55.424Z,13.00
2018-09-28T17:04:24.031Z,12.89
2018-09-28T17:06:52.549Z,12.83
2018-09-28T17:09:21.294Z,12.79
2018-09-28T17:11:49.744Z,12.66
2018-09-28T17:14:19.364Z,12.62
2018-09-28T17:16:47.919Z,12.57
2018-09-28T17:19:16.432Z,12.51
2018-09-28T17:21:44.998Z,12.40
2018-09-28T17:24:13.502Z,12.43
2018-09-28T17:26:42.464Z,12.28
2018-09-28T17:29:11.022Z,12.33
2018-09-28T17:31:39.641Z,12.26
2018-09-28T17:34:08.168Z,12.15
2018-09-28T17:36:37.090Z,12.25
2018-09-28T17:39:08.893Z,12.06
2018-09-28T17:41:37.606Z,12.09
2018-09-28T17:44:06.243Z,12.02
2018-09-28T17:46:34.997Z,11.95
2018-09-28T17:49:05.721Z,11.89
2018-09-28T17:51:34.261Z,11.84
2018-09-28T17:54:04.948Z,11.79
2018-09-28T17:56:34.462Z,11.60
2018-09-28T17:59:04.918Z,11.63
2018-09-28T18:01:33.441Z,11.53
2018-09-28T18:04:03.098Z,11.46
2018-09-28T18:06:31.993Z,11.44
2018-09-28T18:09:00.494Z,11.43
2018-09-28T18:11:29.005Z,11.35
2018-09-28T18:13:57.588Z,11.28
2018-09-28T18:16:26.139Z,11.15
2018-09-28T18:18:54.693Z,11.11
2018-09-28T18:21:23.251Z,11.09
2018-09-28T18:23:51.973Z,10.91
2018-09-28T18:26:20.477Z,10.86
2018-09-28T18:28:49.024Z,10.78
2018-09-28T18:31:17.512Z,10.73
2018-09-28T18:33:46.015Z,10.71
2018-09-28T18:36:14.900Z,10.69
2018-09-28T18:38:43.458Z,10.59
2018-09-28T18:41:12.030Z,10.58
2018-09-28T18:43:40.581Z,10.45
2018-09-28T18:46:09.202Z,10.38
2018-09-28T18:48:37.773Z,10.26
2018-09-28T18:51:06.361Z,10.21
2018-09-28T18:53:35.369Z,10.14
2018-09-28T18:56:06.685Z,10.05
2018-09-28T18:58:35.313Z,10.10
2018-09-28T19:01:05.201Z,9.96
2018-09-28T19:03:33.910Z,10.02
2018-09-28T19:06:03.789Z,10.01
2018-09-28T19:08:32.365Z,9.91
2018-09-28T19:11:00.969Z,9.78
2018-09-28T19:13:29.540Z,9.79
2018-09-28T19:15:58.454Z,9.68
2018-09-28T19:18:27.033Z,9.65
2018-09-28T19:20:55.801Z,9.73
2018-09-28T19:23:24.400Z,9.66
2018-09-28T19:25:53.752Z,9.66
2018-09-28T19:28:22.488Z,9.64
2018-09-28T19:30:51.139Z,9.57
2018-09-28T19:33:19.650Z,9.42
2018-09-28T19:35:48.351Z,9.39
2018-09-28T19:38:17.038Z,9.33
2018-09-28T19:40:45.567Z,9.45
2018-09-28T19:43:14.137Z,9.44
2018-09-28T19:45:42.731Z,9.29
2018-09-28T19:48:11.450Z,9.22
2018-09-28T19:50:40.127Z,9.21
2018-09-28T19:53:08.659Z,9.18
2018-09-28T19:55:37.232Z,9.17
2018-09-28T19:58:06.010Z,9.15
2018-09-28T20:00:34.994Z,9.10
2018-09-28T20:03:05.691Z,9.09
2018-09-28T20:05:34.339Z,9.11
2018-09-28T20:08:04.532Z,8.98
2018-09-28T20:10:33.492Z,8.99
2018-09-28T20:13:04.646Z,9.01
2018-09-28T20:15:33.162Z,9.14
2018-09-28T20:18:03.156Z,9.08
2018-09-28T20:20:31.702Z,8.81
2018-09-28T20:23:00.211Z,8.80
2018-09-28T20:25:28.820Z,8.80
2018-09-28T20:27:57.375Z,8.62
2018-09-28T20:30:26.138Z,8.40
2018-09-28T20:32:54.647Z,8.31
2018-09-28T20:35:23.155Z,8.20
2018-09-28T20:37:51.886Z,8.04
2018-09-28T20:40:20.599Z,8.03
2018-09-28T20:42:49.203Z,7.97
2018-09-28T20:45:17.807Z,8.12
2018-09-28T20:47:46.310Z,8.08
2018-09-28T20:50:14.932Z,8.01
2018-09-28T20:52:44.070Z,7.95
2018-09-28T20:55:12.612Z,7.96
2018-09-28T20:57:41.248Z,7.80
2018-09-28T21:00:09.775Z,7.73
2018-09-28T21:02:39.512Z,7.77
2018-09-28T21:05:07.681Z,7.64
2018-09-28T21:07:36.360Z,7.67
2018-09-28T21:10:05.165Z,7.70
2018-09-28T21:12:33.894Z,7.53
2018-09-28T21:15:03.380Z,7.57
2018-09-28T21:17:31.917Z,7.40
2018-09-28T21:20:00.425Z,7.37
2018-09-28T21:22:28.934Z,7.34
2018-09-28T21:24:57.423Z,7.24
2018-09-28T21:27:26.322Z,7.16
2018-09-28T21:29:54.829Z,7.16
2018-09-28T21:32:23.333Z,7.21
2018-09-28T21:34:51.896Z,7.12
2018-09-28T21:37:20.396Z,6.92
2018-09-28T21:39:48.930Z,6.69
2018-09-28T21:42:17.455Z,6.60
2018-09-28T21:44:45.987Z,6.52
2018-09-28T21:47:14.489Z,6.52
2018-09-28T21:49:43.022Z,6.36
2018-09-28T21:52:11.573Z,6.33
2018-09-28T21:54:44.945Z,6.23
2018-09-28T21:57:13.441Z,6.21
2018-09-28T21:59:42.381Z,6.17
2018-09-28T22:02:11.004Z,6.05
2018-09-28T22:04:39.529Z,6.01
2018-09-28T22:07:08.030Z,5.97
2018-09-28T22:09:36.560Z,5.92
2018-09-28T22:12:06.181Z,5.82
2018-09-28T22:14:34.697Z,5.73
2018-09-28T22:17:04.437Z,5.75
2018-09-28T22:19:33.027Z,5.91
2018-09-28T22:22:03.380Z,5.72
2018-09-28T22:24:32.014Z,5.65
2018-09-28T22:27:00.565Z,5.61
2018-09-28T22:29:29.076Z,5.87
2018-09-28T22:31:57.721Z,5.96
2018-09-28T22:34:26.570Z,5.77
2018-09-28T22:36:55.326Z,5.78
2018-09-28T22:39:23.846Z,5.80
2018-09-28T22:41:52.387Z,5.81
2018-09-28T22:44:20.885Z,5.69
2018-09-28T22:46:49.370Z,5.66
2018-09-28T22:49:18.955Z,5.67
2018-09-28T22:51:47.589Z,5.62
2018-09-28T22:54:16.126Z,5.73
2018-09-28T22:56:44.616Z,5.49
2018-09-28T22:59:13.296Z,5.49
2018-09-28T23:01:42.434Z,5.37
2018-09-28T23:04:10.938Z,5.40
2018-09-28T23:06:39.974Z,5.40
2018-09-28T23:09:09.241Z,5.48
2018-09-28T23:11:38.033Z,5.41
2018-09-28T23:14:06.573Z,5.34
2018-09-28T23:16:36.871Z,5.31
2018-09-28T23:19:05.357Z,5.28
2018-09-28T23:21:33.935Z,5.30
2018-09-28T23:24:03.754Z,5.20
2018-09-28T23:26:32.383Z,5.09
2018-09-28T23:29:00.948Z,5.15
2018-09-28T23:31:29.468Z,5.00
2018-09-28T23:33:58.009Z,5.06
2018-09-28T23:36:26.700Z,4.90
2018-09-28T23:38:55.170Z,4.83
2018-09-28T23:41:23.647Z,4.85
2018-09-28T23:43:52.151Z,4.88
2018-09-28T23:46:20.878Z,4.75
2018-09-28T23:48:49.411Z,4.82
2018-09-28T23:51:17.908Z,4.80
2018-09-28T23:53:46.444Z,4.82
2018-09-28T23:56:14.969Z,5.00
2018-09-28T23:58:43.520Z,4.92
